sensor_id;sensor_type;location;lat;lon;timestamp;P1;durP1;ratioP1;P2;durP2;ratioP2
21647;SDS011;10985;54.182;7.890;2022-10-17T00:00:22;26.85;;;5.05;;
21647;SDS011;10985;54.182;7.890;2022-10-17T00:02:47;23.23;;;4.85;;
21647;SDS011;10985;54.182;7.890;2022-10-17T00:05:13;18.23;;;4.15;;
21647;SDS011;10985;54.182;7.890;2022-10-17T00:07:38;20.83;;;4.20;;
21647;SDS011;10985;54.182;7.890;2022-10-17T00:10:05;24.38;;;4.25;;
21647;SDS011;10985;54.182;7.890;2022-10-17T00:12:31;17.23;;;3.83;;
21647;SDS011;10985;54.182;7.890;2022-10-17T00:14:57;26.88;;;4.18;;
21647;SDS011;10985;54.182;7.890;2022-10-17T00:17:23;22.83;;;4.55;;
21647;SDS011;10985;54.182;7.890;2022-10-17T00:19:48;26.08;;;5.05;;
21647;SDS011;10985;54.182;7.890;2022-10-17T00:22:14;21.23;;;4.00;;
21647;SDS011;10985;54.182;7.890;2022-10-17T00:24:39;26.42;;;5.25;;
21647;SDS011;10985;54.182;7.890;2022-10-17T00:27:05;18.08;;;4.60;;
21647;SDS011;10985;54.182;7.890;2022-10-17T00:29:30;22.58;;;4.05;;
21647;SDS011;10985;54.182;7.890;2022-10-17T00:31:56;21.73;;;4.25;;
21647;SDS011;10985;54.182;7.890;2022-10-17T00:34:22;25.98;;;5.38;;
21647;SDS011;10985;54.182;7.890;2022-10-17T00:36:48;23.15;;;4.82;;
21647;SDS011;10985;54.182;7.890;2022-10-17T00:39:13;25.92;;;4.68;;
21647;SDS011;10985;54.182;7.890;2022-10-17T00:41:39;22.52;;;4.65;;
21647;SDS011;10985;54.182;7.890;2022-10-17T00:46:38;38.25;;;4.43;;
21647;SDS011;10985;54.182;7.890;2022-10-17T00:49:07;19.40;;;3.95;;
21647;SDS011;10985;54.182;7.890;2022-10-17T00:51:36;27.67;;;4.93;;
21647;SDS011;10985;54.182;7.890;2022-10-17T00:54:09;23.63;;;4.88;;
21647;SDS011;10985;54.182;7.890;2022-10-17T00:56:36;18.20;;;4.30;;
21647;SDS011;10985;54.182;7.890;2022-10-17T00:59:04;24.95;;;4.47;;
21647;SDS011;10985;54.182;7.890;2022-10-17T01:01:31;27.85;;;4.65;;
21647;SDS011;10985;54.182;7.890;2022-10-17T01:03:56;23.50;;;4.35;;
21647;SDS011;10985;54.182;7.890;2022-10-17T01:06:22;23.08;;;4.82;;
21647;SDS011;10985;54.182;7.890;2022-10-17T01:08:47;24.55;;;4.88;;
21647;SDS011;10985;54.182;7.890;2022-10-17T01:11:19;33.30;;;5.07;;
21647;SDS011;10985;54.182;7.890;2022-10-17T01:14:16;32.70;;;4.15;;
21647;SDS011;10985;54.182;7.890;2022-10-17T01:22:22;12.25;;;3.75;;
21647;SDS011;10985;54.182;7.890;2022-10-17T01:25:00;26.17;;;4.63;;
21647;SDS011;10985;54.182;7.890;2022-10-17T01:27:55;23.23;;;3.78;;
21647;SDS011;10985;54.182;7.890;2022-10-17T01:33:14;22.38;;;4.65;;
21647;SDS011;10985;54.182;7.890;2022-10-17T01:35:46;25.75;;;4.90;;
21647;SDS011;10985;54.182;7.890;2022-10-17T01:38:19;27.90;;;4.25;;
21647;SDS011;10985;54.182;7.890;2022-10-17T01:41:05;20.92;;;3.97;;
21647;SDS011;10985;54.182;7.890;2022-10-17T01:43:40;18.80;;;4.35;;
21647;SDS011;10985;54.182;7.890;2022-10-17T01:46:28;19.20;;;4.03;;
21647;SDS011;10985;54.182;7.890;2022-10-17T01:49:02;23.73;;;4.80;;
21647;SDS011;10985;54.182;7.890;2022-10-17T01:51:30;16.35;;;3.85;;
21647;SDS011;10985;54.182;7.890;2022-10-17T01:54:20;25.90;;;4.72;;
21647;SDS011;10985;54.182;7.890;2022-10-17T01:56:47;16.73;;;4.88;;
21647;SDS011;10985;54.182;7.890;2022-10-17T01:59:20;29.88;;;4.82;;
21647;SDS011;10985;54.182;7.890;2022-10-17T02:01:50;27.45;;;4.65;;
21647;SDS011;10985;54.182;7.890;2022-10-17T02:04:17;18.98;;;3.85;;
21647;SDS011;10985;54.182;7.890;2022-10-17T02:06:43;27.42;;;4.80;;
21647;SDS011;10985;54.182;7.890;2022-10-17T02:09:22;25.80;;;5.25;;
21647;SDS011;10985;54.182;7.890;2022-10-17T02:12:02;25.25;;;4.10;;
21647;SDS011;10985;54.182;7.890;2022-10-17T02:14:49;18.40;;;4.65;;
21647;SDS011;10985;54.182;7.890;2022-10-17T02:17:39;26.52;;;4.50;;
21647;SDS011;10985;54.182;7.890;2022-10-17T02:23:26;18.20;;;4.28;;
21647;SDS011;10985;54.182;7.890;2022-10-17T02:26:20;21.00;;;4.82;;
21647;SDS011;10985;54.182;7.890;2022-10-17T02:29:08;21.55;;;5.18;;
21647;SDS011;10985;54.182;7.890;2022-10-17T02:36:49;25.75;;;5.25;;
21647;SDS011;10985;54.182;7.890;2022-10-17T02:39:19;23.95;;;5.07;;
21647;SDS011;10985;54.182;7.890;2022-10-17T02:41:48;25.08;;;4.75;;
21647;SDS011;10985;54.182;7.890;2022-10-17T02:44:16;17.45;;;4.80;;
21647;SDS011;10985;54.182;7.890;2022-10-17T02:46:41;22.35;;;4.97;;
21647;SDS011;10985;54.182;7.890;2022-10-17T02:51:52;23.40;;;5.05;;
21647;SDS011;10985;54.182;7.890;2022-10-17T02:54:30;22.85;;;4.97;;
21647;SDS011;10985;54.182;7.890;2022-10-17T02:57:19;20.23;;;4.90;;
21647;SDS011;10985;54.182;7.890;2022-10-17T02:59:49;26.67;;;5.05;;
21647;SDS011;10985;54.182;7.890;2022-10-17T03:02:15;23.73;;;4.63;;
21647;SDS011;10985;54.182;7.890;2022-10-17T03:04:42;20.83;;;4.63;;
21647;SDS011;10985;54.182;7.890;2022-10-17T03:07:09;20.92;;;4.68;;
21647;SDS011;10985;54.182;7.890;2022-10-17T03:09:34;26.50;;;4.55;;
21647;SDS011;10985;54.182;7.890;2022-10-17T03:12:00;27.23;;;5.30;;
21647;SDS011;10985;54.182;7.890;2022-10-17T03:14:25;17.30;;;4.20;;
21647;SDS011;10985;54.182;7.890;2022-10-17T03:16:51;19.73;;;4.85;;
21647;SDS011;10985;54.182;7.890;2022-10-17T03:19:16;16.17;;;4.30;;
21647;SDS011;10985;54.182;7.890;2022-10-17T03:21:42;17.23;;;4.00;;
21647;SDS011;10985;54.182;7.890;2022-10-17T03:24:07;17.45;;;4.15;;
21647;SDS011;10985;54.182;7.890;2022-10-17T03:26:33;12.73;;;4.05;;
21647;SDS011;10985;54.182;7.890;2022-10-17T03:28:59;14.40;;;4.15;;
21647;SDS011;10985;54.182;7.890;2022-10-17T03:31:24;20.13;;;4.78;;
21647;SDS011;10985;54.182;7.890;2022-10-17T03:33:50;14.20;;;4.40;;
21647;SDS011;10985;54.182;7.890;2022-10-17T03:36:16;14.00;;;4.38;;
21647;SDS011;10985;54.182;7.890;2022-10-17T03:38:43;15.35;;;4.03;;
21647;SDS011;10985;54.182;7.890;2022-10-17T03:41:09;16.45;;;4.13;;
21647;SDS011;10985;54.182;7.890;2022-10-17T03:43:35;16.75;;;4.22;;
21647;SDS011;10985;54.182;7.890;2022-10-17T03:46:01;15.48;;;4.63;;
21647;SDS011;10985;54.182;7.890;2022-10-17T03:48:28;14.43;;;4.93;;
21647;SDS011;10985;54.182;7.890;2022-10-17T03:51:01;18.40;;;4.72;;
21647;SDS011;10985;54.182;7.890;2022-10-17T03:53:32;16.42;;;4.10;;
21647;SDS011;10985;54.182;7.890;2022-10-17T03:56:14;13.98;;;3.88;;
21647;SDS011;10985;54.182;7.890;2022-10-17T03:58:41;12.27;;;4.45;;
21647;SDS011;10985;54.182;7.890;2022-10-17T04:01:08;14.32;;;4.95;;
21647;SDS011;10985;54.182;7.890;2022-10-17T04:03:35;17.70;;;4.60;;
21647;SDS011;10985;54.182;7.890;2022-10-17T04:06:01;23.08;;;5.47;;
21647;SDS011;10985;54.182;7.890;2022-10-17T04:08:28;12.73;;;4.70;;
21647;SDS011;10985;54.182;7.890;2022-10-17T04:11:00;20.13;;;4.85;;
21647;SDS011;10985;54.182;7.890;2022-10-17T04:13:28;16.55;;;4.85;;
21647;SDS011;10985;54.182;7.890;2022-10-17T04:15:55;17.27;;;4.80;;
21647;SDS011;10985;54.182;7.890;2022-10-17T04:18:22;20.48;;;4.88;;
21647;SDS011;10985;54.182;7.890;2022-10-17T04:20:47;15.93;;;4.70;;
21647;SDS011;10985;54.182;7.890;2022-10-17T04:23:13;22.55;;;5.13;;
21647;SDS011;10985;54.182;7.890;2022-10-17T04:25:38;12.77;;;4.78;;
21647;SDS011;10985;54.182;7.890;2022-10-17T04:28:04;19.10;;;4.63;;
21647;SDS011;10985;54.182;7.890;2022-10-17T04:30:29;9.10;;;4.45;;
21647;SDS011;10985;54.182;7.890;2022-10-17T04:32:55;20.00;;;4.93;;
21647;SDS011;10985;54.182;7.890;2022-10-17T04:35:20;16.55;;;4.90;;
21647;SDS011;10985;54.182;7.890;2022-10-17T04:37:46;20.27;;;5.47;;
21647;SDS011;10985;54.182;7.890;2022-10-17T04:40:11;26.60;;;5.45;;
21647;SDS011;10985;54.182;7.890;2022-10-17T04:42:37;20.70;;;5.60;;
21647;SDS011;10985;54.182;7.890;2022-10-17T04:45:03;17.33;;;5.40;;
21647;SDS011;10985;54.182;7.890;2022-10-17T04:47:29;20.02;;;5.75;;
21647;SDS011;10985;54.182;7.890;2022-10-17T04:49:54;17.48;;;5.95;;
21647;SDS011;10985;54.182;7.890;2022-10-17T04:52:19;21.67;;;4.82;;
21647;SDS011;10985;54.182;7.890;2022-10-17T04:54:45;19.25;;;5.38;;
21647;SDS011;10985;54.182;7.890;2022-10-17T04:57:10;24.15;;;5.90;;
21647;SDS011;10985;54.182;7.890;2022-10-17T04:59:36;23.02;;;6.00;;
21647;SDS011;10985;54.182;7.890;2022-10-17T05:02:01;18.90;;;5.53;;
21647;SDS011;10985;54.182;7.890;2022-10-17T05:04:27;21.95;;;4.95;;
21647;SDS011;10985;54.182;7.890;2022-10-17T05:06:52;22.48;;;5.32;;
21647;SDS011;10985;54.182;7.890;2022-10-17T05:09:18;30.50;;;5.50;;
21647;SDS011;10985;54.182;7.890;2022-10-17T05:11:43;20.80;;;5.85;;
21647;SDS011;10985;54.182;7.890;2022-10-17T05:14:09;20.23;;;5.85;;
21647;SDS011;10985;54.182;7.890;2022-10-17T05:16:34;17.15;;;6.00;;
21647;SDS011;10985;54.182;7.890;2022-10-17T05:19:00;15.52;;;5.82;;
21647;SDS011;10985;54.182;7.890;2022-10-17T05:21:26;28.60;;;6.65;;
21647;SDS011;10985;54.182;7.890;2022-10-17T05:23:52;19.42;;;6.22;;
21647;SDS011;10985;54.182;7.890;2022-10-17T05:26:18;19.23;;;5.68;;
21647;SDS011;10985;54.182;7.890;2022-10-17T05:28:44;17.17;;;6.57;;
21647;SDS011;10985;54.182;7.890;2022-10-17T05:31:10;22.08;;;7.15;;
21647;SDS011;10985;54.182;7.890;2022-10-17T05:33:36;16.23;;;6.90;;
21647;SDS011;10985;54.182;7.890;2022-10-17T05:36:02;19.95;;;6.65;;
21647;SDS011;10985;54.182;7.890;2022-10-17T05:38:28;19.15;;;6.57;;
21647;SDS011;10985;54.182;7.890;2022-10-17T05:40:57;16.75;;;6.40;;
21647;SDS011;10985;54.182;7.890;2022-10-17T05:43:26;18.90;;;7.20;;
21647;SDS011;10985;54.182;7.890;2022-10-17T05:45:52;14.55;;;6.68;;
21647;SDS011;10985;54.182;7.890;2022-10-17T05:48:18;15.80;;;7.00;;
21647;SDS011;10985;54.182;7.890;2022-10-17T05:50:44;21.17;;;7.88;;
21647;SDS011;10985;54.182;7.890;2022-10-17T05:53:10;23.15;;;7.32;;
21647;SDS011;10985;54.182;7.890;2022-10-17T05:55:35;18.73;;;8.18;;
21647;SDS011;10985;54.182;7.890;2022-10-17T05:58:01;18.63;;;7.90;;
21647;SDS011;10985;54.182;7.890;2022-10-17T06:00:27;28.40;;;8.50;;
21647;SDS011;10985;54.182;7.890;2022-10-17T06:02:52;19.42;;;8.43;;
21647;SDS011;10985;54.182;7.890;2022-10-17T06:05:18;15.45;;;8.43;;
21647;SDS011;10985;54.182;7.890;2022-10-17T06:07:44;23.13;;;8.85;;
21647;SDS011;10985;54.182;7.890;2022-10-17T06:10:10;16.50;;;9.05;;
21647;SDS011;10985;54.182;7.890;2022-10-17T06:12:37;18.77;;;9.13;;
21647;SDS011;10985;54.182;7.890;2022-10-17T06:15:03;21.55;;;8.95;;
21647;SDS011;10985;54.182;7.890;2022-10-17T06:17:29;20.98;;;9.23;;
21647;SDS011;10985;54.182;7.890;2022-10-17T06:19:55;16.02;;;9.20;;
21647;SDS011;10985;54.182;7.890;2022-10-17T06:22:21;19.65;;;9.85;;
21647;SDS011;10985;54.182;7.890;2022-10-17T06:24:46;26.35;;;10.02;;
21647;SDS011;10985;54.182;7.890;2022-10-17T06:27:12;22.40;;;10.52;;
21647;SDS011;10985;54.182;7.890;2022-10-17T06:29:38;17.08;;;10.05;;
21647;SDS011;10985;54.182;7.890;2022-10-17T06:32:03;18.48;;;9.65;;
21647;SDS011;10985;54.182;7.890;2022-10-17T06:34:29;14.35;;;9.30;;
21647;SDS011;10985;54.182;7.890;2022-10-17T06:36:54;20.83;;;10.00;;
21647;SDS011;10985;54.182;7.890;2022-10-17T06:39:20;22.88;;;10.00;;
21647;SDS011;10985;54.182;7.890;2022-10-17T06:41:46;21.42;;;9.88;;
21647;SDS011;10985;54.182;7.890;2022-10-17T06:44:11;21.85;;;9.95;;
21647;SDS011;10985;54.182;7.890;2022-10-17T06:46:37;21.73;;;10.30;;
21647;SDS011;10985;54.182;7.890;2022-10-17T06:49:03;20.27;;;9.93;;
21647;SDS011;10985;54.182;7.890;2022-10-17T06:51:30;20.63;;;10.52;;
21647;SDS011;10985;54.182;7.890;2022-10-17T06:53:58;20.77;;;10.48;;
21647;SDS011;10985;54.182;7.890;2022-10-17T06:56:24;18.95;;;10.02;;
21647;SDS011;10985;54.182;7.890;2022-10-17T06:58:49;24.13;;;9.88;;
21647;SDS011;10985;54.182;7.890;2022-10-17T07:01:16;17.73;;;10.70;;
21647;SDS011;10985;54.182;7.890;2022-10-17T07:03:42;21.05;;;10.32;;
21647;SDS011;10985;54.182;7.890;2022-10-17T07:06:08;21.67;;;10.50;;
21647;SDS011;10985;54.182;7.890;2022-10-17T07:08:37;23.83;;;11.85;;
21647;SDS011;10985;54.182;7.890;2022-10-17T07:11:12;19.67;;;10.75;;
21647;SDS011;10985;54.182;7.890;2022-10-17T07:13:39;20.83;;;10.18;;
21647;SDS011;10985;54.182;7.890;2022-10-17T07:16:05;18.88;;;10.50;;
21647;SDS011;10985;54.182;7.890;2022-10-17T07:18:31;19.83;;;11.25;;
21647;SDS011;10985;54.182;7.890;2022-10-17T07:20:56;20.80;;;12.38;;
21647;SDS011;10985;54.182;7.890;2022-10-17T07:23:22;21.00;;;10.65;;
21647;SDS011;10985;54.182;7.890;2022-10-17T07:25:48;17.83;;;10.93;;
21647;SDS011;10985;54.182;7.890;2022-10-17T07:28:14;18.58;;;11.20;;
21647;SDS011;10985;54.182;7.890;2022-10-17T07:30:40;18.98;;;11.65;;
21647;SDS011;10985;54.182;7.890;2022-10-17T07:33:05;20.80;;;10.98;;
21647;SDS011;10985;54.182;7.890;2022-10-17T07:35:31;19.80;;;12.35;;
21647;SDS011;10985;54.182;7.890;2022-10-17T07:37:56;22.98;;;11.45;;
21647;SDS011;10985;54.182;7.890;2022-10-17T07:40:22;18.70;;;12.40;;
21647;SDS011;10985;54.182;7.890;2022-10-17T07:42:47;24.02;;;12.25;;
21647;SDS011;10985;54.182;7.890;2022-10-17T07:45:13;21.85;;;11.30;;
21647;SDS011;10985;54.182;7.890;2022-10-17T07:47:39;20.02;;;11.68;;
21647;SDS011;10985;54.182;7.890;2022-10-17T07:50:05;18.48;;;11.50;;
21647;SDS011;10985;54.182;7.890;2022-10-17T07:52:31;21.65;;;11.70;;
21647;SDS011;10985;54.182;7.890;2022-10-17T07:54:56;21.55;;;12.55;;
21647;SDS011;10985;54.182;7.890;2022-10-17T07:57:22;17.15;;;12.02;;
21647;SDS011;10985;54.182;7.890;2022-10-17T07:59:47;22.55;;;12.88;;
21647;SDS011;10985;54.182;7.890;2022-10-17T08:02:24;26.02;;;12.32;;
21647;SDS011;10985;54.182;7.890;2022-10-17T08:04:51;20.13;;;12.30;;
21647;SDS011;10985;54.182;7.890;2022-10-17T08:07:17;37.78;;;12.40;;
21647;SDS011;10985;54.182;7.890;2022-10-17T08:09:43;25.00;;;12.52;;
21647;SDS011;10985;54.182;7.890;2022-10-17T08:12:09;26.77;;;12.30;;
21647;SDS011;10985;54.182;7.890;2022-10-17T08:14:35;19.77;;;12.68;;
21647;SDS011;10985;54.182;7.890;2022-10-17T08:17:01;24.67;;;13.13;;
21647;SDS011;10985;54.182;7.890;2022-10-17T08:19:26;23.63;;;12.85;;
21647;SDS011;10985;54.182;7.890;2022-10-17T08:21:52;25.63;;;13.45;;
21647;SDS011;10985;54.182;7.890;2022-10-17T08:24:18;20.27;;;12.68;;
21647;SDS011;10985;54.182;7.890;2022-10-17T08:26:44;23.75;;;12.43;;
21647;SDS011;10985;54.182;7.890;2022-10-17T08:29:13;24.05;;;13.57;;
21647;SDS011;10985;54.182;7.890;2022-10-17T08:31:40;23.05;;;14.07;;
21647;SDS011;10985;54.182;7.890;2022-10-17T08:34:05;22.83;;;13.07;;
21647;SDS011;10985;54.182;7.890;2022-10-17T08:36:31;27.13;;;14.13;;
21647;SDS011;10985;54.182;7.890;2022-10-17T08:38:56;30.98;;;12.95;;
21647;SDS011;10985;54.182;7.890;2022-10-17T08:44:28;23.40;;;12.07;;
21647;SDS011;10985;54.182;7.890;2022-10-17T08:47:03;25.70;;;13.27;;
21647;SDS011;10985;54.182;7.890;2022-10-17T08:52:31;27.38;;;12.23;;
21647;SDS011;10985;54.182;7.890;2022-10-17T08:55:12;20.63;;;12.35;;
21647;SDS011;10985;54.182;7.890;2022-10-17T08:57:47;19.55;;;11.90;;
21647;SDS011;10985;54.182;7.890;2022-10-17T09:00:16;19.55;;;12.30;;
21647;SDS011;10985;54.182;7.890;2022-10-17T09:05:26;17.92;;;11.70;;
21647;SDS011;10985;54.182;7.890;2022-10-17T09:11:01;19.83;;;11.85;;
21647;SDS011;10985;54.182;7.890;2022-10-17T09:13:37;22.23;;;11.45;;
21647;SDS011;10985;54.182;7.890;2022-10-17T09:18:59;16.02;;;11.05;;
21647;SDS011;10985;54.182;7.890;2022-10-17T09:24:08;24.45;;;11.93;;
21647;SDS011;10985;54.182;7.890;2022-10-17T09:26:39;22.13;;;11.73;;
21647;SDS011;10985;54.182;7.890;2022-10-17T09:29:10;18.45;;;11.68;;
21647;SDS011;10985;54.182;7.890;2022-10-17T09:31:48;23.33;;;11.45;;
21647;SDS011;10985;54.182;7.890;2022-10-17T09:34:24;18.50;;;11.63;;
21647;SDS011;10985;54.182;7.890;2022-10-17T09:36:52;20.17;;;12.23;;
21647;SDS011;10985;54.182;7.890;2022-10-17T09:39:18;20.23;;;12.10;;
21647;SDS011;10985;54.182;7.890;2022-10-17T09:41:49;21.58;;;11.73;;
21647;SDS011;10985;54.182;7.890;2022-10-17T09:49:49;23.75;;;12.38;;
21647;SDS011;10985;54.182;7.890;2022-10-17T09:54:47;17.60;;;12.82;;
21647;SDS011;10985;54.182;7.890;2022-10-17T09:57:19;20.00;;;12.73;;
21647;SDS011;10985;54.182;7.890;2022-10-17T09:59:58;18.73;;;12.43;;
21647;SDS011;10985;54.182;7.890;2022-10-17T10:02:27;19.73;;;13.15;;
21647;SDS011;10985;54.182;7.890;2022-10-17T10:04:58;16.75;;;12.63;;
21647;SDS011;10985;54.182;7.890;2022-10-17T10:07:40;17.85;;;12.45;;
21647;SDS011;10985;54.182;7.890;2022-10-17T10:10:21;19.35;;;13.15;;
21647;SDS011;10985;54.182;7.890;2022-10-17T10:13:03;30.45;;;14.27;;
21647;SDS011;10985;54.182;7.890;2022-10-17T10:15:49;20.65;;;13.20;;
21647;SDS011;10985;54.182;7.890;2022-10-17T10:18:32;18.67;;;12.98;;
21647;SDS011;10985;54.182;7.890;2022-10-17T10:23:30;28.88;;;13.75;;
21647;SDS011;10985;54.182;7.890;2022-10-17T10:25:56;19.30;;;13.05;;
21647;SDS011;10985;54.182;7.890;2022-10-17T10:28:31;20.02;;;12.85;;
21647;SDS011;10985;54.182;7.890;2022-10-17T10:30:59;22.25;;;13.27;;
21647;SDS011;10985;54.182;7.890;2022-10-17T10:33:29;23.55;;;12.93;;
21647;SDS011;10985;54.182;7.890;2022-10-17T10:35:58;24.77;;;12.98;;
21647;SDS011;10985;54.182;7.890;2022-10-17T10:38:26;25.05;;;13.98;;
21647;SDS011;10985;54.182;7.890;2022-10-17T10:40:56;28.13;;;14.45;;
21647;SDS011;10985;54.182;7.890;2022-10-17T10:46:03;26.15;;;14.55;;
21647;SDS011;10985;54.182;7.890;2022-10-17T10:48:39;22.98;;;14.68;;
21647;SDS011;10985;54.182;7.890;2022-10-17T10:51:43;22.30;;;14.25;;
21647;SDS011;10985;54.182;7.890;2022-10-17T10:54:14;26.15;;;14.57;;
21647;SDS011;10985;54.182;7.890;2022-10-17T10:56:44;27.33;;;16.27;;
21647;SDS011;10985;54.182;7.890;2022-10-17T11:02:02;34.10;;;15.88;;
21647;SDS011;10985;54.182;7.890;2022-10-17T11:04:44;31.95;;;16.00;;
21647;SDS011;10985;54.182;7.890;2022-10-17T11:07:20;25.02;;;14.95;;
21647;SDS011;10985;54.182;7.890;2022-10-17T11:12:56;25.73;;;15.85;;
21647;SDS011;10985;54.182;7.890;2022-10-17T11:18:27;26.80;;;15.93;;
21647;SDS011;10985;54.182;7.890;2022-10-17T11:21:11;29.58;;;15.40;;
21647;SDS011;10985;54.182;7.890;2022-10-17T11:23:47;26.80;;;15.68;;
21647;SDS011;10985;54.182;7.890;2022-10-17T11:26:28;38.22;;;17.75;;
21647;SDS011;10985;54.182;7.890;2022-10-17T11:28:56;28.63;;;16.92;;
21647;SDS011;10985;54.182;7.890;2022-10-17T11:31:27;32.95;;;17.25;;
21647;SDS011;10985;54.182;7.890;2022-10-17T11:33:57;29.67;;;16.20;;
21647;SDS011;10985;54.182;7.890;2022-10-17T11:36:31;28.95;;;16.77;;
21647;SDS011;10985;54.182;7.890;2022-10-17T11:39:13;33.42;;;17.23;;
21647;SDS011;10985;54.182;7.890;2022-10-17T11:41:47;34.92;;;17.90;;
21647;SDS011;10985;54.182;7.890;2022-10-17T11:44:36;36.00;;;18.83;;
21647;SDS011;10985;54.182;7.890;2022-10-17T11:50:01;40.30;;;19.13;;
21647;SDS011;10985;54.182;7.890;2022-10-17T11:52:44;41.03;;;18.60;;
21647;SDS011;10985;54.182;7.890;2022-10-17T11:55:21;42.50;;;18.55;;
21647;SDS011;10985;54.182;7.890;2022-10-17T12:05:44;38.10;;;21.27;;
21647;SDS011;10985;54.182;7.890;2022-10-17T12:11:10;48.22;;;22.55;;
21647;SDS011;10985;54.182;7.890;2022-10-17T12:16:35;44.38;;;20.30;;
21647;SDS011;10985;54.182;7.890;2022-10-17T12:21:52;66.93;;;23.05;;
21647;SDS011;10985;54.182;7.890;2022-10-17T12:27:37;52.38;;;21.25;;
21647;SDS011;10985;54.182;7.890;2022-10-17T12:32:36;47.15;;;20.10;;
21647;SDS011;10985;54.182;7.890;2022-10-17T12:35:02;43.50;;;19.38;;
21647;SDS011;10985;54.182;7.890;2022-10-17T12:43:42;42.45;;;19.08;;
21647;SDS011;10985;54.182;7.890;2022-10-17T12:46:00;47.60;;;18.92;;
21647;SDS011;10985;54.182;7.890;2022-10-17T12:56:13;49.17;;;19.48;;
21647;SDS011;10985;54.182;7.890;2022-10-17T12:58:49;51.90;;;18.52;;
21647;SDS011;10985;54.182;7.890;2022-10-17T13:01:24;46.25;;;18.10;;
21647;SDS011;10985;54.182;7.890;2022-10-17T13:03:58;41.60;;;18.98;;
21647;SDS011;10985;54.182;7.890;2022-10-17T13:06:30;61.70;;;21.85;;
21647;SDS011;10985;54.182;7.890;2022-10-17T13:09:24;53.67;;;21.70;;
21647;SDS011;10985;54.182;7.890;2022-10-17T13:11:47;57.28;;;20.70;;
21647;SDS011;10985;54.182;7.890;2022-10-17T13:14:15;56.72;;;20.70;;
21647;SDS011;10985;54.182;7.890;2022-10-17T13:16:53;54.55;;;20.95;;
21647;SDS011;10985;54.182;7.890;2022-10-17T13:19:43;50.42;;;19.23;;
21647;SDS011;10985;54.182;7.890;2022-10-17T13:22:25;50.70;;;19.38;;
21647;SDS011;10985;54.182;7.890;2022-10-17T13:25:04;44.38;;;17.10;;
21647;SDS011;10985;54.182;7.890;2022-10-17T13:27:38;44.65;;;17.33;;
21647;SDS011;10985;54.182;7.890;2022-10-17T13:30:20;34.80;;;16.25;;
21647;SDS011;10985;54.182;7.890;2022-10-17T13:33:00;33.88;;;14.45;;
21647;SDS011;10985;54.182;7.890;2022-10-17T13:35:27;40.30;;;15.65;;
21647;SDS011;10985;54.182;7.890;2022-10-17T13:37:55;44.20;;;16.13;;
21647;SDS011;10985;54.182;7.890;2022-10-17T13:40:24;36.83;;;15.60;;
21647;SDS011;10985;54.182;7.890;2022-10-17T13:42:51;39.40;;;15.70;;
21647;SDS011;10985;54.182;7.890;2022-10-17T13:45:21;41.30;;;15.85;;
21647;SDS011;10985;54.182;7.890;2022-10-17T13:47:55;40.28;;;15.25;;
21647;SDS011;10985;54.182;7.890;2022-10-17T13:50:23;42.17;;;15.50;;
21647;SDS011;10985;54.182;7.890;2022-10-17T13:53:04;35.05;;;14.25;;
21647;SDS011;10985;54.182;7.890;2022-10-17T13:55:52;28.88;;;13.48;;
21647;SDS011;10985;54.182;7.890;2022-10-17T13:58:19;28.90;;;13.82;;
21647;SDS011;10985;54.182;7.890;2022-10-17T14:00:45;30.30;;;12.70;;
21647;SDS011;10985;54.182;7.890;2022-10-17T14:03:13;36.08;;;13.32;;
21647;SDS011;10985;54.182;7.890;2022-10-17T14:08:47;32.60;;;12.93;;
21647;SDS011;10985;54.182;7.890;2022-10-17T14:11:29;24.45;;;13.43;;
21647;SDS011;10985;54.182;7.890;2022-10-17T14:14:14;29.45;;;14.20;;
21647;SDS011;10985;54.182;7.890;2022-10-17T14:16:42;30.00;;;14.90;;
21647;SDS011;10985;54.182;7.890;2022-10-17T14:19:25;37.90;;;16.15;;
